Time;durP1;ratioP1;P1;durP2;ratioP2;P2;SDS_P1;SDS_P2;PMS_P1;PMS_P2;Temp;Humidity;BMP_temperature;BMP_pressure;BME280_temperature;BME280_humidity;BME280_pressure;Samples;Min_cycle;Max_cycle;Signal;HPM_P1;HPM_P2
2023/01/03 00:01:13;;;;;;;4.20;1.73;;;6.50;99.90;;;;;;5054340;28;20240;-51
2023/01/03 00:03:43;;;;;;;7.73;1.63;;;6.50;99.90;;;;;;5054209;28;20216;-49
2023/01/03 00:06:19;;;;;;;8.73;1.90;;;6.50;99.90;;;;;;5034451;28;20224;-52
2023/01/03 00:08:47;;;;;;;8.83;1.93;;;6.50;99.90;;;;;;5034546;28;20235;-51
2023/01/03 00:11:18;;;;;;;9.60;2.27;;;6.50;99.90;;;;;;5034417;28;20475;-51
2023/01/03 00:13:45;;;;;;;9.57;2.00;;;6.50;99.90;;;;;;5051471;28;20238;-51
2023/01/03 00:16:17;;;;;;;8.80;1.67;;;6.50;99.90;;;;;;5054451;28;20220;-51
2023/01/03 00:18:46;;;;;;;11.43;2.33;;;6.50;99.90;;;;;;5054020;28;20230;-51
2023/01/03 00:21:14;;;;;;;6.47;1.50;;;6.40;99.90;;;;;;5054176;28;20477;-49
2023/01/03 00:23:43;;;;;;;6.53;1.77;;;6.50;99.90;;;;;;5053894;28;20243;-52
2023/01/03 00:26:11;;;;;;;7.47;1.80;;;6.50;99.90;;;;;;5053786;28;20318;-49
2023/01/03 00:28:39;;;;;;;5.57;1.60;;;6.40;99.90;;;;;;5053734;28;20227;-49
2023/01/03 00:31:08;;;;;;;9.70;1.93;;;6.50;99.90;;;;;;5053341;28;20234;-51
2023/01/03 00:33:37;;;;;;;6.73;1.70;;;6.50;99.90;;;;;;5053238;28;20235;-51
2023/01/03 00:36:09;;;;;;;7.57;1.57;;;6.50;99.90;;;;;;5054000;28;20615;-49
2023/01/03 00:38:38;;;;;;;5.53;1.60;;;6.50;99.90;;;;;;5053542;28;20231;-52
2023/01/03 00:41:07;;;;;;;6.70;1.70;;;6.50;99.90;;;;;;5053851;28;20227;-51
2023/01/03 00:43:37;;;;;;;5.80;1.63;;;6.50;99.90;;;;;;5053935;28;20238;-52
2023/01/03 00:46:06;;;;;;;7.43;1.80;;;6.50;99.90;;;;;;5053539;28;20234;-47
2023/01/03 00:48:34;;;;;;;6.43;1.77;;;6.50;99.90;;;;;;5053533;28;20289;-49
2023/01/03 00:51:07;;;;;;;4.63;1.60;;;6.50;99.90;;;;;;5053752;28;20228;-51
2023/01/03 00:53:36;;;;;;;8.10;1.90;;;6.50;99.90;;;;;;5053136;28;20220;-51
2023/01/03 00:56:06;;;;;;;8.53;2.03;;;6.50;99.90;;;;;;5053450;28;20234;-51
2023/01/03 00:58:34;;;;;;;7.83;2.17;;;6.50;99.90;;;;;;5053186;28;20466;-51
2023/01/03 01:01:05;;;;;;;6.63;2.23;;;6.50;99.90;;;;;;5053010;28;20239;-49
2023/01/03 01:03:34;;;;;;;9.20;2.40;;;6.50;99.90;;;;;;5053262;28;20227;-51
2023/01/03 01:06:13;;;;;;;4.50;2.10;;;6.40;99.90;;;;;;5053127;28;20281;-51
2023/01/03 01:08:41;;;;;;;8.23;2.23;;;6.40;99.90;;;;;;5052995;28;20227;-50
2023/01/03 01:11:10;;;;;;;7.13;2.13;;;6.30;99.90;;;;;;5053515;28;20236;-50
2023/01/03 01:13:38;;;;;;;6.60;2.10;;;6.30;99.90;;;;;;5053000;28;20228;-51
2023/01/03 01:16:08;;;;;;;9.77;1.97;;;6.20;99.90;;;;;;5052997;28;20560;-49
2023/01/03 01:18:37;;;;;;;7.73;1.97;;;6.20;99.90;;;;;;5052731;28;20227;-50
2023/01/03 01:21:06;;;;;;;5.73;2.33;;;6.20;99.90;;;;;;5053123;28;20247;-52
2023/01/03 01:23:38;;;;;;;6.60;2.13;;;6.20;99.90;;;;;;5053040;28;20227;-52
2023/01/03 01:26:07;;;;;;;6.20;2.07;;;6.20;99.90;;;;;;5053211;28;20718;-52
2023/01/03 01:28:35;;;;;;;4.93;2.20;;;6.20;99.90;;;;;;5052563;28;20231;-52
2023/01/03 01:31:05;;;;;;;7.03;2.23;;;6.10;99.90;;;;;;5052022;28;20254;-52
2023/01/03 01:33:34;;;;;;;7.03;1.83;;;6.10;99.90;;;;;;5052793;28;20680;-51
2023/01/03 01:36:06;;;;;;;5.43;2.10;;;6.10;99.90;;;;;;5052867;28;20228;-50
2023/01/03 01:38:36;;;;;;;7.17;2.03;;;6.10;99.90;;;;;;5052697;28;20323;-51
2023/01/03 01:41:04;;;;;;;7.43;2.60;;;6.10;99.90;;;;;;5053008;28;20691;-52
2023/01/03 01:46:22;;;;;;;6.80;2.13;;;6.00;99.90;;;;;;5052788;28;20227;-50
2023/01/03 01:48:54;;;;;;;4.83;2.07;;;6.00;99.90;;;;;;5053065;28;20277;-51
2023/01/03 01:51:25;;;;;;;6.70;2.23;;;6.00;99.90;;;;;;5052592;28;20216;-49
2023/01/03 01:53:58;;;;;;;8.00;2.90;;;6.00;99.90;;;;;;5052906;28;20231;-51
2023/01/03 01:56:33;;;;;;;6.57;2.20;;;5.90;99.90;;;;;;5052556;28;20266;-51
2023/01/03 01:59:02;;;;;;;5.30;1.90;;;5.90;99.90;;;;;;5051112;28;20223;-48
2023/01/03 02:01:31;;;;;;;8.57;2.30;;;5.90;99.90;;;;;;5052322;28;20243;-48
2023/01/03 02:04:09;;;;;;;6.33;2.30;;;5.90;99.90;;;;;;5051455;28;20216;-48
2023/01/03 02:06:39;;;;;;;9.17;2.40;;;5.80;99.90;;;;;;5056373;28;20239;-50
2023/01/03 02:09:08;;;;;;;6.60;2.77;;;5.80;99.90;;;;;;5056620;28;20223;-50
2023/01/03 02:11:45;;;;;;;7.47;2.30;;;5.80;99.90;;;;;;5056669;28;20238;-52
2023/01/03 02:14:40;;;;;;;6.00;3.07;;;5.80;99.90;;;;;;5056801;28;20230;-50
2023/01/03 02:17:14;;;;;;;6.00;2.20;;;5.80;99.90;;;;;;5056270;28;20466;-51
2023/01/03 02:20:18;;;;;;;5.20;2.40;;;5.70;99.90;;;;;;5056293;28;20844;-50
2023/01/03 02:23:08;;;;;;;6.57;2.10;;;5.70;99.90;;;;;;5056556;28;20368;-48
2023/01/03 02:26:04;;;;;;;7.43;2.40;;;5.70;99.90;;;;;;5056112;28;20481;-50
2023/01/03 02:28:56;;;;;;;9.73;2.33;;;5.60;99.90;;;;;;5021093;28;20465;-51
2023/01/03 02:31:33;;;;;;;8.33;2.57;;;5.70;99.90;;;;;;5035801;28;20478;-48
2023/01/03 02:34:07;;;;;;;6.30;2.17;;;5.60;99.90;;;;;;5056134;28;20472;-53
2023/01/03 02:36:45;;;;;;;9.77;2.47;;;5.60;99.90;;;;;;5056238;28;20964;-53
2023/01/03 02:39:22;;;;;;;4.07;2.47;;;5.60;99.90;;;;;;5056359;28;20698;-52
2023/01/03 02:42:56;;;;;;;5.97;2.37;;;5.50;99.90;;;;;;5056375;28;20877;-53
2023/01/03 02:44:52;;;;;;;12.07;2.77;;;5.50;99.90;;;;;;5055656;28;20472;-52
2023/01/03 02:47:25;;;;;;;4.07;2.00;;;5.50;99.90;;;;;;5056094;28;20469;-52
2023/01/03 02:49:54;;;;;;;5.20;2.60;;;5.40;99.90;;;;;;5056111;28;20239;-51
2023/01/03 02:52:26;;;;;;;6.87;2.50;;;5.40;99.90;;;;;;5055752;28;20461;-52
2023/01/03 02:54:58;;;;;;;5.97;2.67;;;5.40;99.90;;;;;;5055786;28;20601;-51
2023/01/03 02:57:31;;;;;;;7.57;2.60;;;5.40;99.90;;;;;;5055834;28;20462;-52
2023/01/03 03:00:21;;;;;;;7.27;2.83;;;5.40;99.90;;;;;;5055326;28;20468;-51
2023/01/03 03:02:57;;;;;;;7.97;2.60;;;5.40;99.90;;;;;;5033007;28;20476;-51
2023/01/03 03:05:29;;;;;;;7.90;2.37;;;5.30;99.90;;;;;;5033302;28;21009;-51
2023/01/03 03:07:57;;;;;;;6.07;2.30;;;5.30;99.90;;;;;;5033595;28;20661;-51
2023/01/03 03:13:18;;;;;;;6.47;2.73;;;5.20;99.90;;;;;;5033396;28;20570;-51
2023/01/03 03:15:52;;;;;;;5.43;2.37;;;5.20;99.90;;;;;;5032927;28;20504;-51
2023/01/03 03:18:27;;;;;;;4.67;2.80;;;5.20;99.90;;;;;;5033178;28;20466;-50
2023/01/03 03:26:37;;;;;;;4.47;2.50;;;5.20;99.90;;;;;;5055182;28;20597;-51
2023/01/03 03:29:07;;;;;;;6.93;3.33;;;5.20;99.90;;;;;;5055063;28;20469;-49
2023/01/03 03:31:40;;;;;;;5.17;3.03;;;5.10;99.90;;;;;;5054631;28;21068;-53
2023/01/03 03:34:13;;;;;;;4.33;3.13;;;5.20;99.90;;;;;;5054993;28;20479;-52
2023/01/03 03:36:50;;;;;;;7.27;3.50;;;5.10;99.90;;;;;;5055057;28;20228;-51
2023/01/03 03:45:16;;;;;;;8.17;4.00;;;5.00;99.90;;;;;;5055058;28;20461;-48
2023/01/03 03:47:49;;;;;;;9.30;3.63;;;5.00;99.90;;;;;;5054726;28;20980;-48
2023/01/03 03:50:25;;;;;;;7.53;4.00;;;5.00;99.90;;;;;;5054884;28;20224;-52
2023/01/03 03:52:57;;;;;;;6.57;3.60;;;5.00;99.90;;;;;;5055049;28;20552;-51
2023/01/03 03:55:31;;;;;;;5.27;3.53;;;5.00;99.90;;;;;;5054437;28;20469;-51
2023/01/03 03:58:03;;;;;;;8.13;4.13;;;4.90;99.90;;;;;;5054547;28;20461;-50
2023/01/03 04:00:37;;;;;;;7.43;3.97;;;4.90;99.90;;;;;;5053764;28;20489;-51
2023/01/03 04:03:06;;;;;;;9.33;4.30;;;4.90;99.90;;;;;;5054515;28;20472;-51
2023/01/03 04:05:39;;;;;;;7.60;3.70;;;4.90;99.90;;;;;;5054125;28;20233;-49
2023/01/03 04:08:09;;;;;;;10.40;4.37;;;4.90;99.90;;;;;;5054506;28;20474;-51
2023/01/03 04:10:37;;;;;;;9.30;4.00;;;4.90;99.90;;;;;;5054094;28;20474;-49
2023/01/03 04:13:06;;;;;;;5.57;3.93;;;4.90;99.90;;;;;;5060666;28;20472;-51
2023/01/03 04:15:34;;;;;;;7.60;4.00;;;4.90;99.90;;;;;;5054425;28;20957;-50
2023/01/03 04:18:02;;;;;;;8.53;4.00;;;4.90;99.90;;;;;;5054056;28;20463;-52
2023/01/03 04:20:30;;;;;;;10.50;4.43;;;4.80;99.90;;;;;;5053827;28;20829;-52
2023/01/03 04:23:00;;;;;;;9.03;4.27;;;4.80;99.90;;;;;;5056785;28;20473;-52
2023/01/03 04:25:28;;;;;;;6.63;4.70;;;4.80;99.90;;;;;;5061582;28;20461;-52
2023/01/03 04:27:57;;;;;;;6.93;4.10;;;4.80;99.90;;;;;;5057861;28;20473;-52
2023/01/03 04:30:25;;;;;;;10.45;4.53;;;4.80;99.90;;;;;;5061281;28;20802;-50
2023/01/03 04:32:53;;;;;;;9.93;4.00;;;4.80;99.90;;;;;;5059350;28;20575;-52
2023/01/03 04:35:21;;;;;;;5.63;3.90;;;4.70;99.90;;;;;;5061781;28;20985;-50
2023/01/03 04:37:49;;;;;;;8.47;3.80;;;4.70;99.90;;;;;;5064334;28;21031;-48
2023/01/03 04:40:18;;;;;;;6.80;4.27;;;4.70;99.90;;;;;;5051500;28;20488;-49
2023/01/03 04:45:32;;;;;;;8.33;3.67;;;4.70;99.90;;;;;;5053686;28;20470;-51
2023/01/03 04:48:00;;;;;;;7.93;4.27;;;4.60;99.90;;;;;;5058771;28;20464;-52
2023/01/03 04:50:29;;;;;;;6.83;4.03;;;4.60;99.90;;;;;;5061894;28;20480;-50
2023/01/03 04:52:57;;;;;;;6.87;4.70;;;4.60;99.90;;;;;;5060320;28;20814;-51
2023/01/03 04:55:27;;;;;;;10.87;4.93;;;4.60;99.90;;;;;;5056239;28;20990;-50
2023/01/03 04:57:55;;;;;;;6.57;4.30;;;4.50;99.90;;;;;;5053286;28;20465;-52
2023/01/03 05:00:23;;;;;;;7.90;4.40;;;4.50;99.90;;;;;;5053036;28;20463;-53
2023/01/03 05:02:51;;;;;;;7.37;4.60;;;4.60;99.90;;;;;;5053348;28;20451;-52
2023/01/03 05:05:19;;;;;;;10.37;5.10;;;4.50;99.90;;;;;;5053570;28;20471;-51
2023/01/03 05:07:47;;;;;;;7.97;5.07;;;4.50;99.90;;;;;;5053048;28;20469;-51
2023/01/03 05:10:16;;;;;;;9.03;5.07;;;4.50;99.90;;;;;;5053405;28;20475;-51
2023/01/03 05:12:58;;;;;;;7.13;5.00;;;4.50;99.90;;;;;;5052562;28;20486;-49
2023/01/03 05:15:27;;;;;;;9.23;5.17;;;4.50;99.90;;;;;;5051100;28;20462;-52
2023/01/03 05:17:55;;;;;;;7.73;5.13;;;4.50;99.90;;;;;;5052883;28;20473;-52
2023/01/03 05:25:58;;;;;;;10.80;5.50;;;4.40;99.90;;;;;;5053163;28;20470;-51
2023/01/03 05:28:28;;;;;;;11.97;5.47;;;4.40;99.90;;;;;;5052618;28;20466;-52
2023/01/03 05:30:58;;;;;;;9.03;5.63;;;4.50;99.90;;;;;;5052458;28;20979;-50
2023/01/03 05:33:27;;;;;;;11.27;6.40;;;4.40;99.90;;;;;;5052784;28;20471;-51
2023/01/03 05:35:55;;;;;;;8.63;5.73;;;4.40;99.90;;;;;;5052632;28;20472;-51
2023/01/03 05:38:23;;;;;;;7.57;5.47;;;4.40;99.90;;;;;;5052160;28;20467;-50
2023/01/03 05:40:51;;;;;;;9.53;5.40;;;4.30;99.90;;;;;;5052490;28;20481;-51
2023/01/03 05:43:19;;;;;;;12.43;5.47;;;4.30;99.90;;;;;;5052538;28;20458;-53
2023/01/03 05:45:51;;;;;;;9.20;5.60;;;4.30;99.90;;;;;;5052500;28;20458;-51
2023/01/03 05:48:20;;;;;;;8.10;5.67;;;4.30;99.90;;;;;;5053185;28;20470;-51
2023/01/03 05:50:49;;;;;;;6.57;5.10;;;4.40;99.90;;;;;;5052321;28;20473;-52
2023/01/03 05:53:18;;;;;;;8.93;5.50;;;4.30;99.90;;;;;;5051567;28;20565;-50
2023/01/03 05:55:46;;;;;;;9.97;5.43;;;4.30;99.90;;;;;;5052381;28;20473;-51
2023/01/03 05:58:14;;;;;;;9.40;5.50;;;4.20;99.90;;;;;;5052592;28;20515;-50
2023/01/03 06:00:43;;;;;;;12.03;5.10;;;4.20;99.90;;;;;;5052335;28;20473;-53
2023/01/03 06:03:14;;;;;;;11.50;5.43;;;4.20;99.90;;;;;;5052604;28;20461;-51
2023/01/03 06:05:43;;;;;;;7.97;5.30;;;4.10;99.90;;;;;;5052544;28;20949;-52
2023/01/03 06:08:17;;;;;;;10.00;6.00;;;4.20;99.90;;;;;;5052818;28;20475;-51
2023/01/03 06:10:46;;;;;;;9.23;5.23;;;4.20;99.90;;;;;;5052488;28;20559;-52
2023/01/03 06:13:14;;;;;;;9.90;5.93;;;4.10;99.90;;;;;;5051271;28;20914;-52
2023/01/03 06:17:53;;;;;;;10.97;5.50;;;4.10;99.90;;;;;;5052065;28;20476;-51
2023/01/03 06:18:30;;;;;;;10.47;5.20;;;4.10;99.90;;;;;;5032556;28;20467;-51
2023/01/03 06:20:58;;;;;;;7.77;5.47;;;4.10;99.90;;;;;;5043824;28;20463;-49
2023/01/03 06:23:27;;;;;;;7.80;5.27;;;4.10;99.90;;;;;;5052176;28;20508;-51
2023/01/03 06:25:55;;;;;;;10.50;5.10;;;4.10;99.90;;;;;;5052440;28;20467;-51
2023/01/03 06:28:23;;;;;;;8.23;5.30;;;4.00;99.90;;;;;;5051992;28;20479;-50
2023/01/03 06:30:51;;;;;;;7.70;5.20;;;4.10;99.90;;;;;;5051568;28;20481;-51
2023/01/03 06:33:20;;;;;;;8.23;5.07;;;4.00;99.90;;;;;;5052197;28;20892;-52
2023/01/03 06:35:49;;;;;;;9.73;5.33;;;4.00;99.90;;;;;;5051628;28;20480;-50
2023/01/03 06:38:18;;;;;;;9.53;5.57;;;4.10;99.90;;;;;;5052061;28;20479;-50
2023/01/03 06:40:47;;;;;;;11.90;5.40;;;4.00;99.90;;;;;;5051893;28;20477;-51
2023/01/03 06:43:15;;;;;;;8.70;5.03;;;4.00;99.90;;;;;;5052041;28;20466;-52
2023/01/03 06:54:23;;;;;;;6.83;5.03;;;3.90;99.90;;;;;;5053816;28;20973;-51
2023/01/03 06:56:52;;;;;;;6.57;5.10;;;3.90;99.90;;;;;;5054866;28;20969;-48
2023/01/03 06:59:22;;;;;;;8.73;5.27;;;3.90;99.90;;;;;;5055481;28;20473;-50
2023/01/03 07:01:52;;;;;;;10.90;5.27;;;3.90;99.90;;;;;;5054780;28;20482;-50
2023/01/03 07:04:21;;;;;;;9.13;5.93;;;3.80;99.90;;;;;;5055102;28;20573;-51
2023/01/03 07:06:51;;;;;;;9.37;5.27;;;3.80;99.90;;;;;;5055128;28;20473;-52
2023/01/03 07:09:19;;;;;;;9.30;6.47;;;3.80;99.90;;;;;;5055637;28;20982;-51
2023/01/03 07:11:47;;;;;;;12.10;6.63;;;3.80;99.90;;;;;;5054654;28;20467;-50
2023/01/03 07:14:14;;;;;;;10.90;6.07;;;3.80;99.90;;;;;;5054866;28;20972;-53
2023/01/03 07:16:45;;;;;;;13.37;6.83;;;3.80;99.90;;;;;;5054515;28;20557;-52
2023/01/03 07:19:16;;;;;;;9.07;7.10;;;3.80;99.90;;;;;;5054151;28;20526;-51
2023/01/03 07:21:44;;;;;;;11.93;7.47;;;3.80;99.90;;;;;;5053474;28;20469;-53
2023/01/03 07:24:17;;;;;;;14.60;7.17;;;3.80;99.90;;;;;;5054396;28;20480;-50
2023/01/03 07:26:45;;;;;;;11.53;7.70;;;3.80;99.90;;;;;;5053196;28;20983;-54
2023/01/03 07:29:13;;;;;;;13.40;8.17;;;3.80;99.90;;;;;;5053995;28;20480;-55
2023/01/03 07:31:42;;;;;;;15.60;8.00;;;3.80;99.90;;;;;;5053694;28;20836;-51
2023/01/03 07:34:10;;;;;;;9.87;7.40;;;3.80;99.90;;;;;;5054104;28;20489;-52
2023/01/03 07:36:38;;;;;;;12.77;8.87;;;3.80;99.90;;;;;;5054127;28;20471;-50
2023/01/03 07:39:06;;;;;;;12.53;8.40;;;3.90;99.90;;;;;;5053040;28;20981;-51
2023/01/03 07:44:22;;;;;;;11.43;9.00;;;3.90;99.90;;;;;;5051003;28;20556;-53
2023/01/03 07:46:50;;;;;;;18.23;9.10;;;3.90;99.90;;;;;;5053460;28;20470;-52
2023/01/03 07:49:18;;;;;;;14.33;8.87;;;3.90;99.90;;;;;;5054146;28;20459;-50
2023/01/03 07:51:46;;;;;;;12.27;9.00;;;3.90;99.90;;;;;;5053636;28;20465;-52
2023/01/03 07:54:14;;;;;;;18.43;9.53;;;3.90;99.90;;;;;;5052680;28;20485;-50
2023/01/03 07:56:43;;;;;;;13.87;9.07;;;3.90;99.90;;;;;;5050882;28;20456;-51
2023/01/03 07:59:11;;;;;;;13.17;8.73;;;3.90;99.90;;;;;;5053774;28;20467;-48
2023/01/03 08:01:39;;;;;;;14.20;9.67;;;3.90;99.90;;;;;;5052045;28;20484;-51
2023/01/03 08:04:10;;;;;;;16.80;9.60;;;3.90;99.90;;;;;;5054202;28;20494;-52
2023/01/03 08:06:40;;;;;;;15.43;8.80;;;3.90;99.90;;;;;;5053779;28;20470;-49
2023/01/03 08:14:40;;;;;;;15.00;9.47;;;3.90;99.90;;;;;;5053634;28;20821;-54
2023/01/03 08:17:08;;;;;;;15.27;9.47;;;3.90;99.90;;;;;;5053079;28;20497;-54
2023/01/03 08:19:36;;;;;;;12.87;9.37;;;3.90;99.90;;;;;;5050752;28;20481;-53
2023/01/03 08:22:12;;;;;;;12.97;9.73;;;4.00;99.90;;;;;;5052182;28;20975;-48
2023/01/03 08:24:40;;;;;;;17.57;9.23;;;3.90;99.90;;;;;;5052926;28;20867;-52
2023/01/03 08:27:09;;;;;;;20.67;10.17;;;3.90;99.90;;;;;;5053316;28;20470;-51
2023/01/03 08:29:37;;;;;;;16.87;9.57;;;3.90;99.90;;;;;;5051594;28;20965;-52
2023/01/03 08:32:06;;;;;;;15.93;10.03;;;4.00;99.90;;;;;;5051271;28;20478;-51
2023/01/03 08:34:40;;;;;;;15.60;9.97;;;4.00;99.90;;;;;;5052478;28;20498;-52
2023/01/03 08:37:11;;;;;;;15.57;9.60;;;4.00;99.90;;;;;;5053045;28;20905;-54
2023/01/03 08:39:42;;;;;;;18.90;10.07;;;4.00;99.90;;;;;;5053091;28;20477;-51
2023/01/03 08:42:15;;;;;;;13.17;9.37;;;4.10;99.90;;;;;;5050456;28;20464;-54
2023/01/03 08:44:44;;;;;;;14.83;9.53;;;4.10;99.90;;;;;;5052280;28;20461;-54
2023/01/03 08:47:14;;;;;;;15.13;10.07;;;4.10;99.90;;;;;;5049051;28;20488;-52
2023/01/03 08:49:43;;;;;;;16.90;10.23;;;4.20;99.90;;;;;;5049784;28;21291;-53
2023/01/03 08:52:11;;;;;;;14.53;10.00;;;4.20;99.90;;;;;;5045056;28;20549;-55
2023/01/03 08:54:40;;;;;;;17.63;10.13;;;4.20;99.90;;;;;;5044876;28;20499;-53
2023/01/03 08:57:08;;;;;;;18.50;11.20;;;4.30;99.90;;;;;;5045686;28;20472;-54
2023/01/03 08:59:37;;;;;;;19.53;11.77;;;4.30;99.90;;;;;;5042658;28;20975;-51
2023/01/03 09:02:06;;;;;;;16.70;10.53;;;4.30;99.90;;;;;;5043699;28;21028;-52
2023/01/03 09:04:35;;;;;;;15.73;10.80;;;4.30;99.90;;;;;;5043879;28;20527;-52
2023/01/03 09:07:04;;;;;;;22.80;11.07;;;4.40;99.90;;;;;;5043768;28;20475;-55
2023/01/03 09:09:32;;;;;;;20.50;11.43;;;4.40;99.90;;;;;;5042471;28;20977;-53
2023/01/03 09:12:00;;;;;;;16.77;10.87;;;4.40;99.90;;;;;;5042708;28;20468;-54
2023/01/03 09:14:30;;;;;;;20.70;11.53;;;4.50;99.90;;;;;;5041801;28;20498;-55
2023/01/03 09:16:59;;;;;;;19.63;11.27;;;4.50;99.90;;;;;;5042358;28;20477;-53
2023/01/03 09:19:27;;;;;;;19.70;10.80;;;4.60;99.90;;;;;;5041012;28;20470;-54
2023/01/03 09:21:55;;;;;;;17.23;11.00;;;4.60;99.90;;;;;;5042749;28;20481;-53
2023/01/03 09:24:23;;;;;;;18.57;11.80;;;4.60;99.90;;;;;;5042339;28;20470;-54
2023/01/03 09:26:51;;;;;;;18.27;11.00;;;4.70;99.90;;;;;;5042491;28;20464;-53
2023/01/03 09:29:22;;;;;;;19.10;11.73;;;4.70;99.90;;;;;;5040807;28;20474;-52
2023/01/03 09:31:50;;;;;;;18.60;11.10;;;4.70;99.90;;;;;;5042326;28;20477;-53
2023/01/03 09:34:20;;;;;;;21.70;11.80;;;4.70;99.90;;;;;;5042741;28;20838;-50
2023/01/03 09:36:48;;;;;;;16.13;11.63;;;4.80;99.90;;;;;;5041984;28;20474;-52
2023/01/03 09:39:16;;;;;;;16.50;11.83;;;4.80;99.90;;;;;;5040933;28;20471;-52
2023/01/03 09:41:44;;;;;;;17.83;11.53;;;4.80;99.90;;;;;;5039112;28;20950;-52
2023/01/03 09:44:33;;;;;;;17.10;11.53;;;4.80;99.90;;;;;;5039646;28;20875;-50
2023/01/03 09:47:03;;;;;;;18.60;11.97;;;4.90;99.90;;;;;;5039744;28;20863;-53
2023/01/03 09:49:35;;;;;;;20.07;11.80;;;4.90;99.90;;;;;;5037340;28;20465;-51
2023/01/03 10:03:43;;;;;;;19.40;11.83;;;5.10;99.90;;;;;;5039814;28;20466;-53
2023/01/03 10:06:33;;;;;;;21.13;12.70;;;5.20;99.90;;;;;;5039274;28;20483;-52
2023/01/03 10:09:11;;;;;;;19.47;11.60;;;5.20;99.90;;;;;;5036442;28;20458;-51
2023/01/03 10:11:47;;;;;;;22.30;12.60;;;5.30;99.90;;;;;;5038846;28;20481;-50
2023/01/03 10:14:26;;;;;;;19.33;11.67;;;5.20;99.90;;;;;;5039554;28;21277;-51
2023/01/03 10:17:03;;;;;;;24.30;12.47;;;5.20;99.90;;;;;;5051345;28;20464;-48
2023/01/03 10:20:01;;;;;;;23.00;13.00;;;5.30;99.90;;;;;;5052635;28;20484;-48
2023/01/03 10:22:32;;;;;;;20.90;13.20;;;5.30;99.90;;;;;;5046608;28;20486;-51
2023/01/03 10:25:10;;;;;;;19.73;13.03;;;5.40;99.90;;;;;;5043769;28;20477;-50
2023/01/03 10:27:45;;;;;;;19.47;12.47;;;5.40;99.90;;;;;;5044731;28;20472;-52
2023/01/03 10:30:16;;;;;;;19.60;12.60;;;5.40;99.90;;;;;;5046152;28;20498;-50
2023/01/03 10:33:00;;;;;;;17.53;10.63;;;5.40;99.90;;;;;;5046443;28;20979;-52
2023/01/03 10:35:31;;;;;;;18.00;12.57;;;5.50;99.90;;;;;;5047126;28;20487;-49
2023/01/03 10:38:01;;;;;;;21.57;11.73;;;5.60;99.90;;;;;;5047164;28;20468;-50
2023/01/03 10:40:35;;;;;;;20.20;12.37;;;5.90;99.90;;;;;;5049375;28;20999;-51
2023/01/03 10:43:15;;;;;;;19.50;11.73;;;6.10;99.90;;;;;;5047830;28;20492;-52
2023/01/03 10:45:55;;;;;;;17.40;11.87;;;6.40;99.90;;;;;;5048938;28;20492;-51
2023/01/03 10:48:24;;;;;;;21.13;12.50;;;6.60;99.90;;;;;;5046559;28;20224;-48
2023/01/03 10:50:53;;;;;;;20.73;11.57;;;6.80;99.90;;;;;;5048687;28;20548;-51
2023/01/03 10:53:23;;;;;;;14.30;10.17;;;6.90;99.90;;;;;;5047736;28;20473;-52
2023/01/03 10:55:54;;;;;;;16.07;10.77;;;7.00;99.90;;;;;;5046195;28;20239;-50
2023/01/03 10:58:25;;;;;;;14.33;10.60;;;7.20;99.90;;;;;;5044386;28;20314;-48
2023/01/03 11:01:18;;;;;;;17.73;9.70;;;7.30;99.90;;;;;;5045423;28;20598;-53
2023/01/03 11:04:11;;;;;;;12.77;8.43;;;7.40;99.90;;;;;;5045359;28;20228;-51
2023/01/03 11:06:55;;;;;;;16.80;9.00;;;7.50;99.90;;;;;;5045345;28;21126;-49
2023/01/03 11:09:27;;;;;;;12.10;8.20;;;7.50;99.90;;;;;;5044742;28;20259;-50
2023/01/03 11:12:02;;;;;;;14.50;8.90;;;7.70;99.90;;;;;;5045374;28;20228;-48
2023/01/03 11:14:30;;;;;;;15.60;9.40;;;7.80;99.90;;;;;;5043605;28;20227;-51
2023/01/03 11:17:00;;;;;;;12.60;8.73;;;7.80;99.90;;;;;;5043630;28;20696;-51
2023/01/03 11:19:31;;;;;;;14.07;8.93;;;8.00;99.90;;;;;;5045486;28;20267;-48
2023/01/03 11:22:13;;;;;;;12.53;8.63;;;8.00;99.90;;;;;;5046508;28;21467;-51
2023/01/03 11:25:04;;;;;;;14.63;9.53;;;8.00;99.90;;;;;;5044962;28;20837;-49
2023/01/03 11:27:49;;;;;;;12.37;8.80;;;8.10;99.90;;;;;;5046135;28;20239;-52
2023/01/03 11:30:25;;;;;;;13.50;9.13;;;8.30;99.90;;;;;;5047236;28;20228;-51
2023/01/03 11:33:13;;;;;;;15.10;8.97;;;8.30;99.90;;;;;;5046622;28;20250;-50
2023/01/03 11:35:56;;;;;;;14.97;8.93;;;8.40;99.90;;;;;;5046347;28;20592;-50
2023/01/03 11:38:42;;;;;;;12.43;8.47;;;8.40;99.90;;;;;;5044585;28;20227;-50
2023/01/03 11:41:26;;;;;;;12.97;8.77;;;8.30;99.90;;;;;;5046317;28;20231;-51
2023/01/03 11:44:12;;;;;;;12.20;8.37;;;8.30;99.90;;;;;;5046190;28;20234;-51
2023/01/03 11:46:53;;;;;;;11.77;8.80;;;8.20;99.90;;;;;;5046470;28;20243;-48
2023/01/03 11:49:28;;;;;;;16.33;9.30;;;8.20;99.90;;;;;;5045846;28;21004;-51
2023/01/03 11:52:12;;;;;;;14.93;9.30;;;8.10;99.90;;;;;;5045896;28;20219;-49
2023/01/03 11:54:58;;;;;;;16.50;10.20;;;8.00;99.90;;;;;;5046551;28;20238;-50
2023/01/03 11:57:38;;;;;;;17.03;10.10;;;8.10;99.90;;;;;;5129752;22;20248;-77
2023/01/03 12:01:03;;;;;;;13.43;9.93;;;8.10;99.90;;;;;;5036465;28;20240;-76
2023/01/03 12:03:49;;;;;;;18.67;10.60;;;8.10;99.90;;;;;;4946711;29;20274;-57
2023/01/03 12:06:25;;;;;;;17.60;10.20;;;8.20;99.90;;;;;;4947353;28;20266;-58
2023/01/03 12:09:13;;;;;;;15.93;10.47;;;8.10;99.90;;;;;;4944515;29;20572;-57
2023/01/03 12:11:54;;;;;;;14.90;10.20;;;8.20;99.90;;;;;;4946585;28;20239;-57
2023/01/03 12:14:26;;;;;;;15.37;11.17;;;8.10;99.90;;;;;;4946299;29;20241;-56
2023/01/03 12:16:58;;;;;;;15.47;10.63;;;8.20;99.90;;;;;;4944664;29;20246;-55
2023/01/03 12:19:34;;;;;;;15.00;10.97;;;8.20;99.90;;;;;;4945902;29;20227;-57
2023/01/03 12:22:08;;;;;;;17.07;11.67;;;8.30;99.90;;;;;;4947349;29;20603;-55
2023/01/03 12:24:42;;;;;;;14.50;10.63;;;8.30;99.90;;;;;;4947526;28;20583;-57
2023/01/03 12:28:07;;;;;;;15.43;10.60;;;8.30;99.90;;;;;;4946143;28;20230;-59
2023/01/03 12:30:44;;;;;;;15.57;10.23;;;8.30;99.90;;;;;;4947319;29;20298;-58
2023/01/03 12:33:25;;;;;;;16.50;10.87;;;8.30;99.90;;;;;;4947896;29;20333;-53
2023/01/03 12:35:59;;;;;;;16.07;10.90;;;8.30;99.90;;;;;;4946998;29;20570;-57
2023/01/03 12:38:32;;;;;;;17.23;11.10;;;8.30;99.90;;;;;;4952439;28;20239;-58
2023/01/03 12:41:06;;;;;;;17.20;10.73;;;8.20;99.90;;;;;;4946014;28;20239;-57
2023/01/03 12:43:44;;;;;;;15.70;10.67;;;8.30;99.90;;;;;;4946043;29;20240;-57
2023/01/03 12:46:18;;;;;;;15.60;10.90;;;8.30;99.90;;;;;;4945882;28;20227;-57
2023/01/03 12:48:54;;;;;;;15.73;10.30;;;8.30;99.90;;;;;;4944318;28;20602;-58
2023/01/03 12:51:24;;;;;;;17.23;10.37;;;8.20;99.90;;;;;;4945834;29;20234;-58
2023/01/03 12:54:03;;;;;;;15.87;10.90;;;8.20;99.90;;;;;;4946087;29;20236;-55
2023/01/03 12:56:53;;;;;;;14.40;9.80;;;8.20;99.90;;;;;;4945692;29;20602;-56
2023/01/03 12:59:46;;;;;;;14.40;9.60;;;8.10;99.90;;;;;;4945288;28;20714;-52
2023/01/03 13:02:26;;;;;;;17.13;10.50;;;8.10;99.90;;;;;;4945212;28;20647;-56
2023/01/03 13:04:58;;;;;;;15.73;9.63;;;8.10;99.90;;;;;;4945101;29;20797;-57
2023/01/03 13:07:30;;;;;;;12.33;8.97;;;8.00;99.90;;;;;;4944987;28;21027;-56
2023/01/03 13:10:04;;;;;;;14.23;10.10;;;7.90;99.90;;;;;;4945445;29;20725;-58
2023/01/03 13:12:34;;;;;;;15.93;10.33;;;7.90;99.90;;;;;;4944919;29;20230;-56
2023/01/03 13:15:14;;;;;;;15.37;10.27;;;7.90;99.90;;;;;;4945075;29;20228;-54
2023/01/03 13:17:46;;;;;;;15.50;10.03;;;7.90;99.90;;;;;;4943886;28;20239;-57
2023/01/03 13:20:32;;;;;;;14.27;9.60;;;7.90;99.90;;;;;;4945334;29;20314;-57
2023/01/03 13:23:01;;;;;;;14.57;9.40;;;7.90;99.90;;;;;;4944929;29;20231;-56
2023/01/03 13:26:11;;;;;;;13.10;9.93;;;7.80;99.90;;;;;;4944885;28;20579;-56
2023/01/03 13:28:40;;;;;;;12.23;9.43;;;7.70;99.90;;;;;;4942063;29;20246;-56
2023/01/03 13:31:34;;;;;;;14.57;9.43;;;7.70;99.90;;;;;;4944232;28;20722;-52
2023/01/03 13:34:16;;;;;;;13.40;9.43;;;7.70;99.90;;;;;;4944505;29;20235;-55
2023/01/03 13:37:18;;;;;;;15.17;9.93;;;7.70;99.90;;;;;;4943890;29;20230;-55
2023/01/03 13:40:01;;;;;;;14.23;9.97;;;7.60;99.90;;;;;;4914206;29;20722;-55
2023/01/03 13:42:34;;;;;;;14.10;9.37;;;7.50;99.90;;;;;;4897194;29;20236;-58
2023/01/03 13:45:38;;;;;;;14.03;9.83;;;7.50;99.90;;;;;;4932567;28;20239;-51
2023/01/03 13:48:16;;;;;;;12.87;9.10;;;7.50;99.90;;;;;;4942475;29;20230;-58
2023/01/03 13:51:05;;;;;;;11.50;8.47;;;7.40;99.90;;;;;;4944553;29;20861;-53
2023/01/03 13:53:38;;;;;;;13.43;8.93;;;7.30;99.90;;;;;;4944085;29;20231;-57
2023/01/03 13:56:24;;;;;;;13.47;8.87;;;7.30;99.90;;;;;;4944207;29;20599;-53
2023/01/03 13:58:57;;;;;;;14.83;8.87;;;7.20;99.90;;;;;;4942597;28;20298;-53
2023/01/03 14:01:45;;;;;;;13.43;8.47;;;7.20;99.90;;;;;;4943089;28;20243;-56
2023/01/03 14:04:45;;;;;;;15.40;9.73;;;7.20;99.90;;;;;;4953424;28;20231;-58
2023/01/03 14:07:42;;;;;;;12.97;9.13;;;7.20;99.90;;;;;;4951453;29;20227;-58
2023/01/03 14:10:21;;;;;;;12.70;9.23;;;7.20;99.90;;;;;;4954667;28;20223;-58
2023/01/03 14:13:10;;;;;;;12.83;9.00;;;7.20;99.90;;;;;;4954648;29;20235;-59
2023/01/03 14:15:38;;;;;;;14.67;9.03;;;7.20;99.90;;;;;;4944688;29;20568;-58